Celestyal Crystal — 9HA2978 — position and weather

sailwx.info

Track history (hours):
 
Tides and Currents Weather Stations Pressure Air Temp Water Temp Dewpoint Dewpoint Depression Visibility Wind Speed Wind Dir Waves Ship Positions

Celestyal Crystal

Last reported at 2016-Aug-28 01:34 UTC. Time now 2016-Aug-28 12:13 UTC.
Position N 37°12' E 024°56'.

Length 162 m; draft 6.2 m.

Type: Passenger vessel. MMSI: 229001000.

Date/timePositionNaut miles runAvg speedWind from/ knotsBaromVisibWave heightAir tempDewpointWater temp
2016-Aug-28 01:34N 37°12' E 024°56'1615.8
2016-Aug-28 00:34N 37°19' E 025°14'1616.1
2016-Aug-27 23:34N 37°26' E 025°32'1816.5
2016-Aug-27 22:28N 37°35' E 025°52'4 0.2
2016-Aug-26 23:31N 37°39' E 025°51'1516.1
2016-Aug-26 22:34N 37°35' E 025°32'1313.3
2016-Aug-26 21:33N 37°28' E 025°18'1 1.3
2016-Aug-26 20:31N 37°28' E 025°20'0 0.0
2016-Aug-26 19:31N 37°28' E 025°20'0 0.0
2016-Aug-26 18:31N 37°28' E 025°20'0 0.0
2016-Aug-26 17:31N 37°28' E 025°20'0 0.0
2016-Aug-26 16:31N 37°28' E 025°20'0 0.0
2016-Aug-26 15:31N 37°28' E 025°20'3 3.5
2016-Aug-26 14:33N 37°30' E 025°16'1312.7
2016-Aug-26 13:33N 37°31' E 025°00'45 4.1
2016-Aug-26 02:30N 37°41' E 024°05'  
2016-Aug-22 23:33N 37°49' E 025°40'1211.7
2016-Aug-22 22:33N 37°41' E 025°29'1414.0
2016-Aug-22 21:33N 37°31' E 025°17'16 2.3
2016-Aug-22 14:25N 37°26' E 024°57'1012.0
2016-Aug-22 13:33N 37°32' E 024°46'2516.7
2016-Aug-22 12:04N 37°30' E 024°15'816.5
2016-Aug-22 11:33N 37°33' E 024°05'1616.5
2016-Aug-22 10:33N 37°38' E 023°45'1615.9
2016-Aug-22 09:34N 37°53' E 023°37'4 3.8
2016-Aug-22 08:33N 37°56' E 023°38'0 0.0
2016-Aug-22 07:33N 37°56' E 023°38'0 0.0
2016-Aug-22 06:33N 37°56' E 023°38'0 0.0
2016-Aug-22 05:33N 37°56' E 023°38'0 0.0
2016-Aug-22 04:33N 37°56' E 023°38'0 0.0
2016-Aug-22 03:30N 37°56' E 023°38'0 0.0
2016-Aug-22 02:33N 37°56' E 023°38'0 0.0
2016-Aug-22 01:33N 37°56' E 023°38'9 8.7
2016-Aug-22 00:33N 37°48' E 023°41'10 9.8
2016-Aug-21 23:33N 37°39' E 023°46'1010.0
2016-Aug-21 22:33N 37°30' E 023°51'9 9.4
2016-Aug-21 21:33N 37°22' E 023°57'49 2.5
2016-Aug-21 01:34N 37°12' E 024°58'1616.3
2016-Aug-21 00:33N 37°20' E 025°16'3216.0
2016-Aug-20 22:32N 37°35' E 025°52'9 0.4
2016-Aug-19 22:33N 37°37' E 025°41'1716.8
2016-Aug-19 21:33N 37°32' E 025°21'4 4.1
2016-Aug-19 20:33N 37°28' E 025°20'0 0.0
2016-Aug-19 19:33N 37°28' E 025°20'0 0.0
2016-Aug-19 18:30N 37°28' E 025°20'0 0.0
2016-Aug-19 17:33N 37°28' E 025°20'0 0.0
2016-Aug-19 16:30N 37°28' E 025°20'0 0.0
2016-Aug-19 15:30N 37°28' E 025°20'0 0.0
2016-Aug-19 14:33N 37°28' E 025°20'1110.5
2016-Aug-19 13:33N 37°30' E 025°07'1616.1
2016-Aug-19 12:33N 37°32' E 024°46'34 3.4
2016-Aug-19 02:28N 37°41' E 024°05'1211.3
2016-Aug-19 01:27N 37°31' E 024°10'1112.0
2016-Aug-19 00:33N 37°22' E 024°17'  
Track history (hours):
 
Tides and Currents Weather Stations Pressure Air Temp Water Temp Dewpoint Dewpoint Depression Visibility Wind Speed Wind Dir Waves Ship Positions

Celestyal Crystal

Last reported at 2016-Aug-28 01:34 UTC. Time now 2016-Aug-28 12:13 UTC.
Position N 37°12' E 024°56'.

Length 162 m; draft 6.2 m.

Type: Passenger vessel. MMSI: 229001000.

Date/timePositionNaut miles runAvg speedWind from/ knotsBaromVisibWave heightAir tempDewpointWater temp
2016-Aug-28 01:34N 37°12' E 024°56'1615.8
2016-Aug-28 00:34N 37°19' E 025°14'1616.1
2016-Aug-27 23:34N 37°26' E 025°32'1816.5
2016-Aug-27 22:28N 37°35' E 025°52'4 0.2
2016-Aug-26 23:31N 37°39' E 025°51'1516.1
2016-Aug-26 22:34N 37°35' E 025°32'1313.3
2016-Aug-26 21:33N 37°28' E 025°18'1 1.3
2016-Aug-26 20:31N 37°28' E 025°20'0 0.0
2016-Aug-26 19:31N 37°28' E 025°20'0 0.0
2016-Aug-26 18:31N 37°28' E 025°20'0 0.0
2016-Aug-26 17:31N 37°28' E 025°20'0 0.0
2016-Aug-26 16:31N 37°28' E 025°20'0 0.0
2016-Aug-26 15:31N 37°28' E 025°20'3 3.5
2016-Aug-26 14:33N 37°30' E 025°16'1312.7
2016-Aug-26 13:33N 37°31' E 025°00'45 4.1
2016-Aug-26 02:30N 37°41' E 024°05'  
2016-Aug-22 23:33N 37°49' E 025°40'1211.7
2016-Aug-22 22:33N 37°41' E 025°29'1414.0
2016-Aug-22 21:33N 37°31' E 025°17'16 2.3
2016-Aug-22 14:25N 37°26' E 024°57'1012.0
2016-Aug-22 13:33N 37°32' E 024°46'2516.7
2016-Aug-22 12:04N 37°30' E 024°15'816.5
2016-Aug-22 11:33N 37°33' E 024°05'1616.5
2016-Aug-22 10:33N 37°38' E 023°45'1615.9
2016-Aug-22 09:34N 37°53' E 023°37'4 3.8
2016-Aug-22 08:33N 37°56' E 023°38'0 0.0
2016-Aug-22 07:33N 37°56' E 023°38'0 0.0
2016-Aug-22 06:33N 37°56' E 023°38'0 0.0
2016-Aug-22 05:33N 37°56' E 023°38'0 0.0
2016-Aug-22 04:33N 37°56' E 023°38'0 0.0
2016-Aug-22 03:30N 37°56' E 023°38'0 0.0
2016-Aug-22 02:33N 37°56' E 023°38'0 0.0
2016-Aug-22 01:33N 37°56' E 023°38'9 8.7
2016-Aug-22 00:33N 37°48' E 023°41'10 9.8
2016-Aug-21 23:33N 37°39' E 023°46'1010.0
2016-Aug-21 22:33N 37°30' E 023°51'9 9.4
2016-Aug-21 21:33N 37°22' E 023°57'49 2.5
2016-Aug-21 01:34N 37°12' E 024°58'1616.3
2016-Aug-21 00:33N 37°20' E 025°16'3216.0
2016-Aug-20 22:32N 37°35' E 025°52'9 0.4
2016-Aug-19 22:33N 37°37' E 025°41'1716.8
2016-Aug-19 21:33N 37°32' E 025°21'4 4.1
2016-Aug-19 20:33N 37°28' E 025°20'0 0.0
2016-Aug-19 19:33N 37°28' E 025°20'0 0.0
2016-Aug-19 18:30N 37°28' E 025°20'0 0.0
2016-Aug-19 17:33N 37°28' E 025°20'0 0.0
2016-Aug-19 16:30N 37°28' E 025°20'0 0.0
2016-Aug-19 15:30N 37°28' E 025°20'0 0.0
2016-Aug-19 14:33N 37°28' E 025°20'1110.5
2016-Aug-19 13:33N 37°30' E 025°07'1616.1
2016-Aug-19 12:33N 37°32' E 024°46'34 3.4
2016-Aug-19 02:28N 37°41' E 024°05'1211.3
2016-Aug-19 01:27N 37°31' E 024°10'1112.0
2016-Aug-19 00:33N 37°22' E 024°17'  

Dump ship's entire track history